Time;durP1;ratioP1;P1;durP2;ratioP2;P2;SDS_P1;SDS_P2;PMS_P1;PMS_P2;Temp;Humidity;BMP_temperature;BMP_pressure;BME280_temperature;BME280_humidity;BME280_pressure;Samples;Min_cycle;Max_cycle;Signal;HPM_P1;HPM_P2
2023/10/18 00:00:28;0.00;0.00;0.62;0.00;0.00;0.62;6.40;5.50;;;23.10;26.40;;;;;;2262384;61;20375;-62
2023/10/18 00:03:14;0.00;0.00;0.62;0.00;0.00;0.62;5.37;4.87;;;23.10;26.40;;;;;;2263444;61;21006;-61
2023/10/18 00:06:07;0.00;0.00;0.62;0.00;0.00;0.62;6.13;4.90;;;23.10;26.40;;;;;;2356442;53;20448;-57
2023/10/18 00:08:58;0.00;0.00;0.62;0.00;0.00;0.62;7.70;4.80;;;23.10;26.40;;;;;;2265464;61;20452;-54
2023/10/18 00:11:43;0.00;0.00;0.62;0.00;0.00;0.62;6.00;5.37;;;23.10;26.40;;;;;;2265336;61;20945;-57
2023/10/18 00:14:28;0.00;0.00;0.62;0.00;0.00;0.62;7.90;5.00;;;23.10;26.40;;;;;;2265901;61;20360;-58
2023/10/18 00:17:13;0.00;0.00;0.62;0.00;0.00;0.62;5.03;4.50;;;23.10;26.40;;;;;;2264647;61;20403;-60
2023/10/18 00:19:59;0.00;0.00;0.62;0.00;0.00;0.62;7.80;5.00;;;23.10;26.40;;;;;;2264243;61;20409;-56
2023/10/18 00:22:44;0.00;0.00;0.62;0.00;0.00;0.62;5.10;4.53;;;23.10;26.40;;;;;;2266325;61;20414;-61
2023/10/18 00:25:29;0.00;0.00;0.62;0.00;0.00;0.62;6.10;5.50;;;23.10;26.40;;;;;;2268455;61;20390;-62
2023/10/18 00:28:13;0.00;0.00;0.62;0.00;0.00;0.62;9.40;5.37;;;23.10;26.40;;;;;;2268307;61;20371;-60
2023/10/18 00:31:08;0.00;0.00;0.62;0.00;0.00;0.62;6.40;5.80;;;23.10;26.40;;;;;;2265284;61;20363;-61
2023/10/18 00:33:53;0.00;0.00;0.62;0.00;0.00;0.62;5.43;4.83;;;23.10;26.40;;;;;;2268666;61;20459;-61
2023/10/18 00:36:40;0.00;0.00;0.62;0.00;0.00;0.62;6.40;5.43;;;23.10;26.90;;;;;;2268283;61;20367;-61
2023/10/18 00:39:27;0.00;0.00;0.62;0.00;0.00;0.62;7.73;5.90;;;23.10;26.30;;;;;;2266868;61;20408;-61
2023/10/18 00:42:28;0.00;0.00;0.62;0.00;0.00;0.62;6.80;6.10;;;23.10;26.30;;;;;;2264477;61;20380;-58
2023/10/18 00:45:12;0.00;0.00;0.62;0.00;0.00;0.62;7.20;6.50;;;23.10;26.20;;;;;;2264433;61;20434;-61
2023/10/18 00:47:57;0.00;0.00;0.62;0.00;0.00;0.62;6.30;5.60;;;23.10;26.20;;;;;;2264106;61;20428;-62
2023/10/18 00:50:43;0.00;0.00;0.62;0.00;0.00;0.62;6.47;5.87;;;23.10;26.20;;;;;;2595806;45;20356;-63
2023/10/18 00:53:33;0.00;0.00;0.62;0.00;0.00;0.62;8.47;6.27;;;23.10;26.20;;;;;;2264271;61;20416;-60
2023/10/18 00:56:18;0.00;0.00;0.62;0.00;0.00;0.62;8.07;6.33;;;23.10;26.20;;;;;;2264418;61;20368;-58
2023/10/18 00:59:07;0.00;0.00;0.62;0.00;0.00;0.62;7.30;6.23;;;23.10;26.20;;;;;;2263890;61;20434;-61
2023/10/18 01:01:57;0.00;0.00;0.62;0.00;0.00;0.62;5.73;4.93;;;23.10;26.20;;;;;;2264482;61;21007;-62
2023/10/18 01:04:42;0.00;0.00;0.62;0.00;0.00;0.62;6.20;5.60;;;23.10;26.20;;;;;;2264644;61;20971;-60
2023/10/18 01:07:27;0.00;0.00;0.62;0.00;0.00;0.62;5.73;5.23;;;23.10;26.20;;;;;;2326123;53;20363;-60
2023/10/18 01:10:13;0.00;0.00;0.62;0.00;0.00;0.62;6.53;5.23;;;23.20;26.80;;;;;;2260783;61;20357;-60
2023/10/18 01:13:01;0.00;0.00;0.62;0.00;0.00;0.62;5.63;5.13;;;23.10;26.20;;;;;;2264796;61;20411;-62
2023/10/18 01:15:46;0.00;0.00;0.62;0.00;0.00;0.62;6.00;5.17;;;23.20;26.20;;;;;;2265079;61;20360;-58
2023/10/18 01:18:31;0.00;0.00;0.62;0.00;0.00;0.62;6.27;5.53;;;23.10;26.20;;;;;;2264883;61;20406;-58
2023/10/18 01:21:18;0.00;0.00;0.62;0.00;0.00;0.62;6.07;5.47;;;23.10;26.10;;;;;;2264982;61;20414;-64
2023/10/18 01:24:13;0.00;0.00;0.62;0.00;0.00;0.62;6.60;5.10;;;23.10;26.10;;;;;;2265069;61;20364;-63
2023/10/18 01:26:59;0.00;0.00;0.62;0.00;0.00;0.62;6.07;5.23;;;23.20;26.20;;;;;;2265171;61;20375;-63
2023/10/18 01:29:44;0.00;0.00;0.62;0.00;0.00;0.62;8.20;5.30;;;23.10;26.10;;;;;;2264534;61;20876;-63
2023/10/18 01:32:29;0.00;0.00;0.62;0.00;0.00;0.62;5.63;5.10;;;23.10;26.20;;;;;;2264802;61;20450;-62
2023/10/18 01:35:15;0.00;0.00;0.62;0.00;0.00;0.62;5.00;4.50;;;23.20;26.20;;;;;;2264299;61;20364;-63
2023/10/18 01:38:04;0.00;0.00;0.62;0.00;0.00;0.62;5.83;5.20;;;23.10;26.10;;;;;;2264237;61;20880;-64
2023/10/18 01:40:52;0.00;0.00;0.62;0.00;0.00;0.62;5.70;4.97;;;23.10;26.10;;;;;;2264447;61;20486;-63
2023/10/18 01:43:39;0.00;0.00;0.62;0.00;0.00;0.62;5.20;4.60;;;23.20;26.10;;;;;;2264630;61;20380;-63
2023/10/18 01:46:23;0.00;0.00;0.62;0.00;0.00;0.62;6.00;4.97;;;23.10;26.00;;;;;;2264902;61;20388;-63
2023/10/18 01:49:13;0.00;0.00;0.62;0.00;0.00;0.62;6.87;4.80;;;23.10;26.00;;;;;;2268352;61;20370;-63
2023/10/18 01:51:59;0.00;0.00;0.62;0.00;0.00;0.62;5.53;5.03;;;23.10;26.00;;;;;;2269028;61;20379;-63
2023/10/18 01:54:44;0.00;0.00;0.62;0.00;0.00;0.62;4.93;4.40;;;23.10;26.00;;;;;;2269151;61;20355;-63
2023/10/18 01:57:28;0.00;0.00;0.62;0.00;0.00;0.62;4.93;4.43;;;23.10;26.00;;;;;;2265806;61;20363;-64
2023/10/18 02:00:25;0.00;0.00;0.62;0.00;0.00;0.62;4.40;3.80;;;23.10;26.00;;;;;;2265602;61;20444;-64
2023/10/18 02:03:11;0.00;0.00;0.62;0.00;0.00;0.62;5.17;4.67;;;23.10;25.90;;;;;;2269277;61;20911;-63
2023/10/18 02:05:56;0.00;0.00;0.62;0.00;0.00;0.62;5.43;4.90;;;23.10;25.90;;;;;;2268750;61;21003;-63
2023/10/18 02:08:41;0.00;0.00;0.62;0.00;0.00;0.62;4.93;3.77;;;23.10;25.90;;;;;;2268709;61;20362;-62
2023/10/18 02:11:25;0.00;0.00;0.62;0.00;0.00;0.62;5.00;4.50;;;23.10;25.90;;;;;;2269137;61;20355;-64
2023/10/18 02:14:13;0.00;0.00;0.62;0.00;0.00;0.62;5.10;4.00;;;23.10;25.90;;;;;;2266444;61;20875;-63
2023/10/18 02:17:00;0.00;0.00;0.62;0.00;0.00;0.62;4.80;4.17;;;23.10;25.90;;;;;;2264448;61;20380;-62
2023/10/18 02:19:45;0.00;0.00;0.62;0.00;0.00;0.62;4.63;4.10;;;23.10;25.90;;;;;;2264401;61;20394;-64
2023/10/18 02:22:29;0.00;0.00;0.62;0.00;0.00;0.62;4.73;4.10;;;23.10;25.90;;;;;;2264283;61;20383;-63
2023/10/18 02:25:24;0.00;0.00;0.62;0.00;0.00;0.62;4.60;4.17;;;23.10;25.90;;;;;;2264365;61;20511;-64
2023/10/18 02:28:22;0.00;0.00;0.62;0.00;0.00;0.62;5.00;4.03;;;23.00;25.90;;;;;;2264532;61;20364;-64
2023/10/18 02:33:53;0.00;0.00;0.62;0.00;0.00;0.62;3.83;3.43;;;23.00;25.90;;;;;;2264767;61;20518;-63
2023/10/18 02:36:40;0.00;0.00;0.62;0.00;0.00;0.62;4.70;4.30;;;23.00;25.90;;;;;;2264981;61;20364;-64
2023/10/18 02:39:32;0.00;0.00;0.62;0.00;0.00;0.62;4.90;3.73;;;23.00;25.90;;;;;;2264503;61;20402;-64
2023/10/18 02:42:18;0.00;0.00;0.62;0.00;0.00;0.62;4.90;3.80;;;23.10;25.90;;;;;;2264712;61;20388;-63
2023/10/18 02:45:13;0.00;0.00;0.62;0.00;0.00;0.62;4.30;3.70;;;23.00;25.90;;;;;;2264912;61;20468;-63
2023/10/18 02:47:57;0.00;0.00;0.62;0.00;0.00;0.62;4.57;3.90;;;23.00;25.90;;;;;;2261133;61;20775;-64
2023/10/18 02:50:43;0.00;0.00;0.62;0.00;0.00;0.62;4.40;3.90;;;23.00;25.80;;;;;;2264305;61;20410;-63
2023/10/18 02:53:28;0.00;0.00;0.62;0.00;0.00;0.62;4.00;3.53;;;23.00;25.90;;;;;;2264738;61;20789;-64
2023/10/18 02:56:27;0.00;0.00;0.62;0.00;0.00;0.62;4.43;3.67;;;23.00;25.90;;;;;;2265165;61;20940;-62
2023/10/18 02:59:13;0.00;0.00;0.62;0.00;0.00;0.62;4.03;3.63;;;23.00;25.80;;;;;;2787963;45;20329;-63
2023/10/18 03:02:01;0.00;0.00;0.62;0.00;0.00;0.62;3.77;3.47;;;23.00;25.90;;;;;;2265102;61;20379;-64
2023/10/18 03:04:47;0.00;0.00;0.62;0.00;0.00;0.62;4.37;3.97;;;23.00;25.90;;;;;;2264694;61;20886;-64
2023/10/18 03:07:37;0.00;0.00;0.62;0.00;0.00;0.62;4.40;4.00;;;23.00;25.90;;;;;;2264772;61;20433;-62
2023/10/18 03:10:32;0.00;0.00;0.62;0.00;0.00;0.62;3.53;3.23;;;23.00;25.90;;;;;;2261554;61;20368;-64
2023/10/18 03:13:18;0.00;0.00;0.62;0.00;0.00;0.62;4.50;3.30;;;23.00;25.80;;;;;;2264532;61;20396;-63
2023/10/18 03:16:13;0.00;0.00;0.62;0.00;0.00;0.62;4.00;3.60;;;23.00;25.80;;;;;;2264953;61;20442;-58
2023/10/18 03:18:59;0.00;0.00;0.62;0.00;0.00;0.62;4.23;3.83;;;23.00;25.80;;;;;;2263868;61;20416;-62
2023/10/18 03:21:50;0.00;0.00;0.62;0.00;0.00;0.62;3.43;3.13;;;23.00;25.90;;;;;;2264822;61;20471;-61
2023/10/18 03:24:37;0.00;0.00;0.62;0.00;0.00;0.62;3.60;3.27;;;23.00;25.90;;;;;;2264934;61;20916;-62
2023/10/18 03:27:31;0.00;0.00;0.62;0.00;0.00;0.62;3.83;3.40;;;23.00;25.80;;;;;;2264447;61;20372;-61
2023/10/18 03:30:19;0.00;0.00;0.62;0.00;0.00;0.62;4.17;3.00;;;23.00;25.80;;;;;;2264661;61;20410;-62
2023/10/18 03:33:07;0.00;0.00;0.62;0.00;0.00;0.62;3.70;3.17;;;22.90;25.80;;;;;;2264957;61;20514;-62
2023/10/18 03:36:06;0.00;0.00;0.62;0.00;0.00;0.62;3.40;3.10;;;22.90;25.80;;;;;;2264437;61;20365;-62
2023/10/18 03:38:54;0.00;0.00;0.62;0.00;0.00;0.62;3.53;3.23;;;22.90;25.80;;;;;;2264610;61;20582;-62
2023/10/18 03:41:42;0.00;0.00;0.62;0.00;0.00;0.62;3.93;3.53;;;22.90;25.80;;;;;;2264070;61;20392;-62
2023/10/18 03:44:27;0.00;0.00;0.62;0.00;0.00;0.62;4.27;3.10;;;22.90;25.80;;;;;;2264334;61;20770;-61
2023/10/18 03:47:24;0.00;0.00;0.62;0.00;0.00;0.62;3.13;2.83;;;22.90;25.80;;;;;;2264273;61;20521;-62
2023/10/18 03:50:14;0.00;0.00;0.62;0.00;0.00;0.62;3.50;3.20;;;22.90;25.80;;;;;;2263974;61;20364;-61
2023/10/18 03:52:59;0.00;0.00;0.62;0.00;0.00;0.62;4.00;3.40;;;22.90;25.80;;;;;;2264766;61;20387;-60
2023/10/18 03:55:45;0.00;0.00;0.62;0.00;0.00;0.62;3.20;2.90;;;22.90;25.80;;;;;;2264866;61;20930;-60
2023/10/18 03:58:34;0.00;0.00;0.62;0.00;0.00;0.62;3.57;3.27;;;22.90;26.30;;;;;;2264555;61;20356;-62
2023/10/18 04:01:21;0.00;0.00;0.62;0.00;0.00;0.62;3.53;2.70;;;22.80;25.70;;;;;;2264852;61;20498;-60
2023/10/18 04:04:07;0.00;0.00;0.62;0.00;0.00;0.62;3.30;2.67;;;22.90;25.80;;;;;;2264216;61;20376;-60
2023/10/18 04:06:58;0.00;0.00;0.62;0.00;0.00;0.62;3.17;2.60;;;22.80;25.70;;;;;;2264847;61;20360;-63
2023/10/18 04:10:12;0.00;0.00;0.62;0.00;0.00;0.62;4.10;3.70;;;22.80;25.70;;;;;;2264461;61;20821;-62
2023/10/18 04:12:51;0.00;0.00;0.62;0.00;0.00;0.62;3.30;2.90;;;22.80;25.70;;;;;;2264269;61;20982;-63
2023/10/18 04:15:37;0.00;0.00;0.62;0.00;0.00;0.62;3.13;2.83;;;22.80;25.80;;;;;;2268804;61;20867;-61
2023/10/18 04:18:25;0.00;0.00;0.62;0.00;0.00;0.62;2.80;2.50;;;22.80;25.80;;;;;;2265454;61;20774;-63
2023/10/18 04:21:25;0.00;0.00;0.62;0.00;0.00;0.62;3.50;3.00;;;22.80;25.80;;;;;;2268993;61;20774;-62
2023/10/18 04:24:10;0.00;0.00;0.62;0.00;0.00;0.62;3.83;3.20;;;22.80;25.80;;;;;;2268831;61;20417;-61
2023/10/18 04:26:56;0.00;0.00;0.62;0.00;0.00;0.62;3.50;2.70;;;22.80;25.80;;;;;;2268705;61;20520;-60
2023/10/18 04:29:41;0.00;0.00;0.62;0.00;0.00;0.62;3.37;3.07;;;22.80;25.80;;;;;;2729205;45;20364;-61
2023/10/18 04:32:27;0.00;0.00;0.62;0.00;0.00;0.62;3.43;2.53;;;22.80;25.80;;;;;;2264652;61;20380;-61
2023/10/18 04:35:17;0.00;0.00;0.62;0.00;0.00;0.62;3.53;2.80;;;22.80;25.80;;;;;;2264999;61;20367;-63
2023/10/18 04:38:07;0.00;0.00;0.62;0.00;0.00;0.62;3.43;2.90;;;22.80;25.80;;;;;;2264233;61;20822;-62
2023/10/18 04:41:03;0.00;0.00;0.62;0.00;0.00;0.62;3.20;2.80;;;22.80;25.80;;;;;;2264419;61;20919;-62
2023/10/18 04:43:51;0.00;0.00;0.62;0.00;0.00;0.62;2.80;2.40;;;22.80;25.80;;;;;;2264850;61;20376;-62
2023/10/18 04:46:36;0.00;0.00;0.62;0.00;0.00;0.62;3.40;3.10;;;22.80;25.80;;;;;;2264530;61;20946;-62
2023/10/18 04:49:38;0.00;0.00;0.62;0.00;0.00;0.62;3.97;3.43;;;22.80;25.80;;;;;;2265119;61;20371;-62
2023/10/18 04:52:28;0.00;0.00;0.62;0.00;0.00;0.62;3.57;2.87;;;22.80;25.80;;;;;;2262039;61;20946;-62
2023/10/18 04:55:16;0.00;0.00;0.62;0.00;0.00;0.62;3.20;2.80;;;22.70;25.70;;;;;;2265318;61;20411;-61
2023/10/18 04:58:01;0.00;0.00;0.62;0.00;0.00;0.62;4.67;3.80;;;22.70;25.70;;;;;;2265094;61;20360;-62
2023/10/18 05:00:56;0.00;0.00;0.62;0.00;0.00;0.62;3.43;3.13;;;22.80;25.80;;;;;;2265207;61;20363;-62
2023/10/18 05:03:44;0.00;0.00;0.62;0.00;0.00;0.62;3.13;2.83;;;22.80;25.80;;;;;;2265204;61;20380;-61
2023/10/18 05:06:34;0.00;0.00;0.62;0.00;0.00;0.62;3.17;2.87;;;22.70;25.80;;;;;;2265133;61;20655;-61
2023/10/18 05:09:29;0.00;0.00;0.62;0.00;0.00;0.62;3.17;2.70;;;22.70;25.70;;;;;;2264867;61;20391;-64
2023/10/18 05:12:27;0.00;0.00;0.62;0.00;0.00;0.62;3.40;2.97;;;22.70;25.80;;;;;;2261813;61;20966;-64
2023/10/18 05:15:17;0.00;0.00;0.62;0.00;0.00;0.62;3.77;3.00;;;22.70;25.70;;;;;;2264921;61;20387;-64
2023/10/18 05:18:05;0.00;0.00;0.62;0.00;0.00;0.62;3.27;2.63;;;22.70;25.80;;;;;;2264350;61;20407;-63
2023/10/18 05:23:40;0.00;0.00;0.62;0.00;0.00;0.62;3.00;2.70;;;22.70;25.80;;;;;;2264767;61;20795;-62
2023/10/18 05:26:32;0.00;0.00;0.62;0.00;0.00;0.62;3.17;2.77;;;22.70;25.80;;;;;;2264739;61;20793;-61
2023/10/18 05:29:17;0.00;0.00;0.62;0.00;0.00;0.62;3.37;2.73;;;22.70;25.80;;;;;;2264773;61;20368;-61
2023/10/18 05:32:36;0.00;0.00;0.62;0.00;0.00;0.62;3.63;2.87;;;22.70;25.80;;;;;;2264727;61;20426;-64
2023/10/18 05:38:18;0.00;0.00;0.62;0.00;0.00;0.62;3.80;3.07;;;22.70;25.80;;;;;;2264570;61;20773;-65
2023/10/18 05:41:18;0.00;0.00;0.62;0.00;0.00;0.62;3.13;2.67;;;22.70;25.80;;;;;;2264528;61;20406;-64
2023/10/18 05:44:06;0.00;0.00;0.62;0.00;0.00;0.62;2.90;2.53;;;22.70;25.80;;;;;;2264993;61;20376;-60
2023/10/18 05:46:51;0.00;0.00;0.62;0.00;0.00;0.62;3.50;2.70;;;22.70;25.80;;;;;;2264768;61;20435;-65
2023/10/18 05:49:41;0.00;0.00;0.62;0.00;0.00;0.62;3.43;3.07;;;22.70;25.80;;;;;;2264561;61;20364;-61
2023/10/18 05:52:37;0.00;0.00;0.62;0.00;0.00;0.62;4.17;3.50;;;22.70;25.80;;;;;;2264746;61;20380;-63
2023/10/18 05:55:22;0.00;0.00;0.62;0.00;0.00;0.62;3.13;2.60;;;22.70;25.80;;;;;;2264730;61;20360;-65
2023/10/18 05:58:08;0.00;0.00;0.62;0.00;0.00;0.62;3.33;2.83;;;22.70;25.80;;;;;;2264434;61;20363;-64
2023/10/18 06:00:55;0.00;0.00;0.62;0.00;0.00;0.62;4.23;3.10;;;22.60;25.80;;;;;;2264801;61;20368;-64
2023/10/18 06:06:22;0.00;0.00;0.62;0.00;0.00;0.62;2.90;2.53;;;22.60;25.80;;;;;;2274749;61;20406;-62
2023/10/18 06:09:11;0.00;0.00;0.62;0.00;0.00;0.62;4.70;2.93;;;22.70;25.80;;;;;;2272344;61;20374;-64
2023/10/18 06:11:56;0.00;0.00;0.62;0.00;0.00;0.62;3.30;2.87;;;22.70;26.40;;;;;;2269690;61;20390;-64
2023/10/18 06:14:45;0.00;0.00;0.62;0.00;0.00;0.62;3.60;3.10;;;22.60;25.80;;;;;;2269510;61;20412;-64
2023/10/18 06:17:46;0.00;0.00;0.62;0.00;0.00;0.62;3.30;2.93;;;22.60;25.80;;;;;;2269700;61;20374;-62
2023/10/18 06:20:34;0.00;0.00;0.62;0.00;0.00;0.62;3.57;2.97;;;22.70;25.90;;;;;;2272910;61;20358;-67
2023/10/18 06:23:37;0.00;0.00;0.62;0.00;0.00;0.62;3.87;3.00;;;22.60;25.80;;;;;;2272909;61;20378;-63
2023/10/18 06:26:28;0.00;0.00;0.62;0.00;0.00;0.62;3.53;2.97;;;22.60;25.80;;;;;;2272921;61;20373;-61
2023/10/18 06:29:15;0.00;0.00;0.62;0.00;0.00;0.62;4.30;3.33;;;22.60;25.80;;;;;;2272626;61;20375;-64
2023/10/18 06:32:04;0.00;0.00;0.62;0.00;0.00;0.62;3.73;2.80;;;22.60;25.80;;;;;;2269356;61;20395;-61
2023/10/18 06:34:55;0.00;0.00;0.62;0.00;0.00;0.62;4.40;3.53;;;22.60;25.80;;;;;;2272771;61;20407;-62
2023/10/18 06:37:44;0.00;0.00;0.62;0.00;0.00;0.62;3.87;3.37;;;22.60;25.90;;;;;;2272700;61;20365;-63
2023/10/18 06:40:43;0.00;0.00;0.62;0.00;0.00;0.62;4.30;3.43;;;22.60;25.90;;;;;;2272818;61;20775;-64
2023/10/18 06:43:29;0.00;0.00;0.62;0.00;0.00;0.62;4.40;3.50;;;22.60;25.90;;;;;;2272855;61;20463;-64
2023/10/18 06:46:29;0.00;0.00;0.62;0.00;0.00;0.62;4.57;3.90;;;22.60;25.90;;;;;;2272456;61;20618;-63
2023/10/18 06:49:15;0.00;0.00;0.62;0.00;0.00;0.62;4.20;3.60;;;22.60;25.90;;;;;;2272358;61;20359;-62
2023/10/18 06:52:01;0.00;0.00;0.62;0.00;0.00;0.62;4.80;3.97;;;22.60;25.90;;;;;;2269547;61;20514;-64
2023/10/18 06:54:46;0.00;0.00;0.62;0.00;0.00;0.62;4.60;4.07;;;22.60;25.90;;;;;;2272584;61;20920;-64
2023/10/18 06:57:35;0.00;0.00;0.62;0.00;0.00;0.62;5.30;3.77;;;22.60;25.90;;;;;;2272869;61;20496;-64
2023/10/18 07:00:21;0.00;0.00;0.62;0.00;0.00;0.62;4.90;3.90;;;22.60;25.90;;;;;;2272928;61;20361;-64
2023/10/18 07:03:05;0.00;0.00;0.62;0.00;0.00;0.62;5.97;4.43;;;22.50;25.80;;;;;;2272678;61;20404;-62
2023/10/18 07:05:54;0.00;0.00;0.62;0.00;0.00;0.62;6.63;5.10;;;22.60;25.90;;;;;;2269306;61;20395;-60
2023/10/18 07:08:40;0.00;0.00;0.62;0.00;0.00;0.62;9.67;6.60;;;22.60;25.80;;;;;;2268211;61;20501;-61
2023/10/18 07:11:31;0.00;0.00;0.62;0.00;0.00;0.62;7.90;6.57;;;22.50;25.30;;;;;;2268631;61;20378;-59
2023/10/18 07:14:16;0.00;0.00;0.62;0.00;0.00;0.62;9.70;7.60;;;22.40;25.00;;;;;;2265393;61;20425;-62
2023/10/18 07:17:01;0.00;0.00;0.62;0.00;0.00;0.62;9.53;8.10;;;22.40;24.70;;;;;;2268388;61;20375;-59
2023/10/18 07:19:48;0.00;0.00;0.62;0.00;0.00;0.62;11.00;8.90;;;22.30;24.30;;;;;;2265105;61;20959;-65
2023/10/18 07:22:44;0.00;0.00;0.62;0.00;0.00;0.62;10.47;8.73;;;22.20;23.80;;;;;;2268368;61;20386;-60
2023/10/18 07:25:28;0.00;0.00;0.62;0.00;0.00;0.62;9.30;8.20;;;22.00;23.50;;;;;;2268691;61;20411;-60
2023/10/18 07:28:13;0.00;0.00;0.62;0.00;0.00;0.62;10.00;9.00;;;21.80;23.80;;;;;;2268547;61;20413;-61
2023/10/18 07:31:01;0.00;0.00;0.62;0.00;0.00;0.62;8.93;7.57;;;21.70;24.00;;;;;;2268521;61;20479;-57
2023/10/18 07:33:45;0.00;0.00;0.62;0.00;0.00;0.62;10.00;7.50;;;21.60;24.20;;;;;;2268750;61;20398;-58
2023/10/18 07:36:37;0.00;0.00;0.62;0.00;0.00;0.62;9.40;7.97;;;21.50;24.40;;;;;;2268649;61;20767;-57
2023/10/18 07:39:26;0.00;0.00;0.62;0.00;0.00;0.62;8.53;7.37;;;21.40;24.60;;;;;;2264862;61;20494;-57
2023/10/18 07:42:11;0.00;0.00;0.62;0.00;0.00;0.62;9.50;8.10;;;21.30;24.70;;;;;;2268828;61;20391;-61
2023/10/18 07:45:03;0.00;0.00;0.62;0.00;0.00;0.62;8.63;7.73;;;21.30;24.90;;;;;;2268863;61;20422;-56
2023/10/18 07:47:54;0.00;0.00;0.62;0.00;0.00;0.62;9.07;7.30;;;21.30;25.00;;;;;;2268193;61;20779;-58
2023/10/18 07:53:22;0.00;0.00;0.62;0.00;0.00;0.62;9.97;6.87;;;21.20;25.10;;;;;;2268368;61;20387;-59
2023/10/18 07:56:11;0.00;0.00;0.62;0.00;0.00;0.62;12.33;7.83;;;21.10;25.20;;;;;;2268397;61;20394;-60
2023/10/18 07:59:27;0.00;0.00;0.62;0.00;0.00;0.62;10.30;8.63;;;21.10;25.20;;;;;;2264926;61;20379;-56
2023/10/18 08:02:12;0.00;0.00;0.62;0.00;0.00;0.62;9.50;8.17;;;21.10;25.10;;;;;;2268282;61;20424;-60
2023/10/18 08:05:00;0.00;0.00;0.62;0.00;0.00;0.62;10.00;8.20;;;21.10;25.10;;;;;;2268839;61;20806;-59
2023/10/18 08:07:52;0.00;0.00;0.62;0.00;0.00;0.62;7.43;6.40;;;21.00;25.00;;;;;;2265155;61;20443;-57
2023/10/18 08:10:36;0.00;0.00;0.62;0.00;0.00;0.62;6.93;6.00;;;21.00;25.20;;;;;;2267670;61;20550;-59
2023/10/18 08:13:28;0.00;0.00;0.62;0.00;0.00;0.62;7.53;5.37;;;21.00;25.40;;;;;;2591360;45;20942;-60
2023/10/18 08:16:26;0.00;0.00;0.62;0.00;0.00;0.62;6.43;5.20;;;21.00;25.70;;;;;;2506679;53;20355;-56
2023/10/18 08:19:22;0.00;0.00;0.62;0.00;0.00;0.62;5.80;5.20;;;21.00;25.80;;;;;;2268152;61;20448;-54
2023/10/18 08:24:51;0.00;0.00;0.62;0.00;0.00;0.62;6.70;5.03;;;21.10;26.00;;;;;;2268295;61;20442;-56
2023/10/18 08:27:41;0.00;0.00;0.62;0.00;0.00;0.62;6.47;5.27;;;21.10;26.00;;;;;;2268481;61;20832;-55
2023/10/18 08:31:03;0.00;0.00;0.62;0.00;0.00;0.62;8.73;5.87;;;21.10;26.00;;;;;;2268380;61;20371;-58
2023/10/18 08:33:44;0.00;0.00;0.62;0.00;0.00;0.62;7.50;5.00;;;21.20;26.10;;;;;;2268396;61;20436;-61
2023/10/18 08:36:31;0.00;0.00;0.62;0.00;0.00;0.62;7.33;5.10;;;21.20;26.00;;;;;;2268391;61;20359;-55
2023/10/18 08:39:16;0.00;0.00;0.62;0.00;0.00;0.62;6.90;5.70;;;21.30;26.10;;;;;;2267894;61;20369;-57
2023/10/18 08:42:15;0.00;0.00;0.62;0.00;0.00;0.62;6.83;4.83;;;21.30;26.10;;;;;;2268383;61;20410;-58
2023/10/18 08:45:04;0.00;0.00;0.62;0.00;0.00;0.62;5.00;4.13;;;21.30;26.10;;;;;;2268449;61;20374;-57
2023/10/18 08:47:57;0.00;0.00;0.62;0.00;0.00;0.62;6.07;4.77;;;21.30;26.10;;;;;;2268412;61;20772;-60
2023/10/18 08:50:42;0.00;0.00;0.62;0.00;0.00;0.62;7.80;5.00;;;21.40;26.20;;;;;;2268373;61;20400;-64
2023/10/18 08:53:31;0.00;0.00;0.62;0.00;0.00;0.62;4.90;4.33;;;21.40;26.10;;;;;;2265004;61;20444;-62
2023/10/18 08:56:24;0.00;0.00;0.62;0.00;0.00;0.62;6.37;4.70;;;21.50;26.20;;;;;;2268473;61;20462;-59
2023/10/18 08:59:11;0.00;0.00;0.62;0.00;0.00;0.62;5.90;4.50;;;21.50;26.20;;;;;;2267941;61;20382;-61
2023/10/18 09:05:01;0.00;0.00;0.62;0.00;0.00;0.62;7.10;4.37;;;21.60;26.30;;;;;;2268250;61;20398;-58
2023/10/18 09:07:46;0.00;0.00;0.62;0.00;0.00;0.62;6.20;4.60;;;21.60;26.20;;;;;;2268141;61;20375;-62
2023/10/18 09:16:12;0.00;0.00;0.62;0.00;0.00;0.62;8.37;4.60;;;21.70;26.30;;;;;;2272206;61;20377;-57
2023/10/18 09:18:58;0.00;0.00;0.62;0.00;0.00;0.62;5.67;4.50;;;21.80;26.30;;;;;;2271965;61;20955;-57
2023/10/18 09:24:38;0.00;0.00;0.62;0.00;0.00;0.62;5.77;4.30;;;21.80;26.30;;;;;;2272374;61;20386;-57
2023/10/18 09:27:27;0.00;0.00;0.62;0.00;0.00;0.62;6.20;4.20;;;21.80;26.30;;;;;;2272343;61;20853;-62
2023/10/18 09:30:18;0.00;0.00;0.62;0.00;0.00;0.62;5.20;4.20;;;21.90;26.30;;;;;;2271777;61;20400;-57
2023/10/18 09:33:03;0.00;0.00;0.62;0.00;0.00;0.62;5.10;4.60;;;21.90;26.30;;;;;;2272408;60;20396;-54
2023/10/18 09:35:49;0.00;0.00;0.62;0.00;0.00;0.62;8.13;4.40;;;21.90;26.30;;;;;;2273133;61;20362;-53
2023/10/18 09:38:41;0.00;0.00;0.62;0.00;0.00;0.62;4.80;4.00;;;22.00;26.30;;;;;;2272591;61;20362;-60
2023/10/18 09:41:30;0.00;0.00;0.62;0.00;0.00;0.62;4.53;4.10;;;22.00;26.30;;;;;;2273234;61;20366;-59
2023/10/18 09:44:18;0.00;0.00;0.62;0.00;0.00;0.62;4.73;4.00;;;22.00;26.30;;;;;;2273173;61;20416;-60
2023/10/18 09:47:04;0.00;0.00;0.62;0.00;0.00;0.62;6.67;4.10;;;22.10;26.40;;;;;;2272994;61;20411;-63
2023/10/18 09:49:49;0.00;0.00;0.62;0.00;0.00;0.62;6.70;4.43;;;22.10;26.40;;;;;;2272898;61;20400;-57
2023/10/18 09:52:47;0.00;0.00;0.62;0.00;0.00;0.62;6.40;4.00;;;22.10;26.30;;;;;;2269595;61;20382;-59
2023/10/18 09:55:34;0.00;0.00;0.62;0.00;0.00;0.62;4.80;4.40;;;22.10;26.30;;;;;;2273090;61;20362;-59
2023/10/18 09:58:22;0.00;0.00;0.62;0.00;0.00;0.62;4.40;3.97;;;22.20;26.30;;;;;;2268753;61;20374;-54
2023/10/18 10:04:14;0.00;0.00;0.62;0.00;0.00;0.62;5.70;4.50;;;22.20;26.30;;;;;;2269930;61;20564;-56
2023/10/18 10:10:07;0.00;0.00;0.62;0.00;0.00;0.62;6.90;4.70;;;22.30;26.40;;;;;;2272000;61;20410;-58
2023/10/18 10:12:57;0.00;0.00;0.62;0.00;0.00;0.62;4.80;3.37;;;22.30;26.30;;;;;;2272702;61;20952;-59
2023/10/18 10:15:45;0.00;0.00;0.62;0.00;0.00;0.62;4.60;3.80;;;22.30;26.30;;;;;;2265679;61;20371;-59
2023/10/18 10:18:34;0.00;0.00;0.62;0.00;0.00;0.62;4.53;3.60;;;22.40;26.40;;;;;;2262470;61;20409;-60
2023/10/18 10:21:21;0.00;0.00;0.62;0.00;0.00;0.62;5.47;3.80;;;22.30;26.30;;;;;;2268725;61;20773;-57
2023/10/18 10:24:29;0.00;0.00;0.62;0.00;0.00;0.62;4.80;4.30;;;22.40;26.40;;;;;;2268491;61;20442;-58
2023/10/18 10:27:27;0.00;0.00;0.62;0.00;0.00;0.62;5.32;4.00;;;22.40;26.40;;;;;;2268444;61;20354;-57
2023/10/18 10:33:12;0.00;0.00;0.62;0.00;0.00;0.62;4.20;3.40;;;22.50;26.30;;;;;;2273024;61;20382;-55
2023/10/18 10:36:05;0.00;0.00;0.62;0.00;0.00;0.62;5.03;3.47;;;22.60;26.30;;;;;;2272615;61;20382;-56
2023/10/18 10:38:55;0.00;0.00;0.62;0.00;0.00;0.62;3.53;2.90;;;22.60;26.30;;;;;;2272556;61;20370;-50
2023/10/18 10:41:41;0.00;0.00;0.62;0.00;0.00;0.62;4.03;3.43;;;22.70;26.40;;;;;;2273034;61;20370;-55
2023/10/18 10:44:30;0.00;0.00;0.62;0.00;0.00;0.62;3.90;3.10;;;22.60;26.40;;;;;;2272713;60;20367;-57
2023/10/18 10:47:42;0.00;0.00;0.62;0.00;0.00;0.62;6.10;3.20;;;22.70;26.50;;;;;;2272630;61;20389;-57
2023/10/18 10:50:53;0.00;0.00;0.62;0.00;0.00;0.62;4.93;3.70;;;22.70;26.50;;;;;;2272547;61;20412;-57
2023/10/18 10:53:43;0.00;0.00;0.62;0.00;0.00;0.62;4.30;2.70;;;22.70;26.60;;;;;;2272874;61;20385;-54
2023/10/18 10:56:48;0.00;0.00;0.62;0.00;0.00;0.62;3.70;3.30;;;22.70;26.60;;;;;;2269512;61;20775;-58
2023/10/18 10:59:41;0.00;0.00;0.62;0.00;0.00;0.62;3.70;2.90;;;22.80;26.70;;;;;;2272219;61;20366;-55
2023/10/18 11:02:40;0.00;0.00;0.62;0.00;0.00;0.62;3.67;2.63;;;22.80;26.70;;;;;;2272677;61;20397;-56
2023/10/18 11:05:24;0.00;0.00;0.62;0.00;0.00;0.62;4.70;3.00;;;22.80;26.70;;;;;;2272390;61;20363;-58
2023/10/18 11:08:12;0.00;0.00;0.62;0.00;0.00;0.62;8.30;3.00;;;22.90;26.80;;;;;;2272410;61;20398;-56
2023/10/18 11:10:57;0.00;0.00;0.62;0.00;0.00;0.62;3.60;2.80;;;22.90;26.80;;;;;;2272734;61;20369;-59
2023/10/18 11:13:43;0.00;0.00;0.62;0.00;0.00;0.62;5.60;2.97;;;22.90;26.80;;;;;;2271032;61;20440;-56
2023/10/18 11:16:27;0.00;0.00;0.62;0.00;0.00;0.62;4.40;3.07;;;22.90;26.90;;;;;;2268797;61;20391;-54
2023/10/18 11:19:15;0.00;0.00;0.62;0.00;0.00;0.62;8.60;3.17;;;22.90;26.90;;;;;;2268327;61;20397;-53
2023/10/18 11:22:00;0.00;0.00;0.62;0.00;0.00;0.62;4.37;3.00;;;23.00;27.00;;;;;;2268473;61;20445;-58
2023/10/18 11:24:44;0.00;0.00;0.62;0.00;0.00;0.62;3.53;2.77;;;23.00;27.00;;;;;;2268834;61;20462;-56
2023/10/18 11:27:37;0.00;0.00;0.62;0.00;0.00;0.62;3.70;2.63;;;23.00;27.10;;;;;;2268540;61;20381;-56
2023/10/18 11:30:25;0.00;0.00;0.62;0.00;0.00;0.62;3.13;2.30;;;23.00;27.10;;;;;;2269223;61;20406;-56
2023/10/18 11:33:16;0.00;0.00;0.62;0.00;0.00;0.62;5.57;2.60;;;23.10;27.20;;;;;;2268922;61;20789;-54
2023/10/18 11:36:08;0.00;0.00;0.62;0.00;0.00;0.62;4.27;2.77;;;23.10;27.20;;;;;;2268523;61;20871;-58
2023/10/18 11:41:57;0.00;0.00;0.62;0.00;0.00;0.62;5.20;2.97;;;23.20;27.20;;;;;;2268529;61;20394;-52
2023/10/18 11:44:42;0.00;0.00;0.62;0.00;0.00;0.62;4.10;2.73;;;23.20;27.20;;;;;;2268029;61;20359;-59
2023/10/18 11:47:26;0.00;0.00;0.62;0.00;0.00;0.62;2.87;2.30;;;23.20;27.20;;;;;;2267780;61;20474;-58